x

North Michigan- Halfway Between North Manitou And Washington Islands. (45002) Wave Buoy

9:50pm - Sun 28th May 2017 All times are CDT. -5 hours from GMT.

  • Sig Wave height 0.3ft
  • Average Period 3s
  • Wind
    7mph, 7mph gusts
  • Sea Temp 42°f
  • Air Temp 46°f
  • Sea Pressure 1005.5mb
  • North Michigan- Halfway Between North Manitou And Washington Islands.
  • North Michigan- Halfway Between North Manitou And Washington Islands.

More Historic Weather Station data

Upgrade to MSW Pro to gain access to the past 30 days of data for over 8000 Wavebouys and Weather Stations around the globe.

Join Pro

Comparision Forecast

View Surf forecast
   
Sun 05/28 9:50pm 0.3ft  -  3s 7 7 mph 1005.5mb 42f 46f
8:50pm 0.3ft  -  3s 7 9 mph 1005.5mb 42f 50f
7:50pm 0.3ft  -  3s 2 7 mph 1005.7mb 42f 44f
6:50pm 0.3ft  -  3s 4 4 mph 1005.2mb 42f 45f
5:50pm 0.3ft  -  3s 7 9 mph 1005mb 42f 45f
4:50pm 0.3ft  -  3s 9 11 mph 1005.1mb 42f 45f
3:50pm 0.3ft  -  3s 7 9 mph 1005.6mb 42f 45f
2:50pm 0.3ft  -  3s 9 9 mph 1005.5mb 41f 45f
1:50pm 0.3ft  -  3s 7 9 mph 1006.5mb 41f 45f
12:50pm 0.3ft  -  3s 4 7 mph 1006.6mb 41f 46f
11:50am  -   -   -  7 7 mph 1007.4mb 41f 45f
10:50am 0.3ft  -  3s 11 11 mph 1008mb 41f 46f
9:50am 0.3ft  -  3s 13 16 mph 1008mb 41f 47f
8:50am 0.7ft  -  3s 7 11 mph 1006.9mb 41f 49f
7:50am 0.7ft  -  3s 4 4 mph 1007.2mb 41f 46f
6:50am  -   -   -  4 7 mph 1007.4mb 41f 44f
5:50am 0.7ft  -  3s 4 4 mph 1007.6mb 42f 45f
4:50am  -   -   -  9 11 mph 1008.4mb 42f 50f
3:50am 0.7ft  -  3s 7 9 mph 1008.9mb 42f 45f
2:50am 1ft 3s 3s 7 7 mph 1009.3mb 42f 45f
1:50am  -   -   -  11 13 mph 1009.3mb 42f 46f
12:50am 0.7ft  -  3s 9 11 mph 1009.7mb 42f 46f
Sat 05/27 11:50pm 0.7ft  -  3s 11 13 mph 1010.2mb 42f 46f
10:50pm 0.7ft  -  3s 9 11 mph 1010.3mb 42f 46f
9:50pm 0.7ft  -  3s 11 11 mph 1010.6mb 42f 47f
8:50pm 0.7ft  -  3s 11 13 mph 1010.8mb 42f 47f
7:50pm 0.3ft  -  3s 11 13 mph 1011.4mb 42f 47f
6:50pm 0.3ft  -  3s 7 7 mph 1010.8mb 42f 46f
5:50pm 0.7ft  -  3s 7 9 mph 1011.3mb 42f 47f
4:50pm 0.3ft  -  2s 11 11 mph 1011.9mb 43f 49f
3:50pm 0.3ft  -  2s 9 11 mph 1012.2mb 43f 49f
2:50pm 0.3ft  -  2s 9 11 mph 1012.9mb 43f 47f
1:50pm 0.3ft  -  3s 7 9 mph 1013.4mb 43f 46f
12:50pm  -   -   -  7 7 mph 1013.5mb 43f 45f
11:50am 0.3ft  -  3s 7 9 mph 1013.3mb 42f 45f
10:50am  -   -  3s 9 11 mph 1012.9mb 42f 45f
9:50am  -   -  3s 9 11 mph 1013mb 42f 45f
8:50am  -   -  4s 9 9 mph 1013mb 42f 45f
7:50am  -   -  4s 9 9 mph 1013.7mb 42f 44f
6:50am  -   -  4s 7 9 mph 1013.2mb 42f 44f
5:50am  -   -  4s 7 7 mph 1013mb 42f 44f
4:50am 0.3ft  -  3s 4 7 mph 1012.7mb 42f 44f
3:50am  -   -  4s 4 7 mph 1012.7mb 42f 44f
2:50am 0.3ft  -  3s 4 7 mph 1013.2mb 42f 44f
1:50am 0.3ft  -  3s 4 4 mph 1013.1mb 42f 45f
12:50am 0.3ft  -  4s 7 7 mph 1012.8mb 42f 44f
Fri 05/26 11:50pm 0.3ft  -  4s 7 7 mph 1012.9mb 42f 44f
10:50pm  -   -  4s 2 4 mph 1012.8mb 42f 44f
9:50pm  -   -  4s 4 7 mph 1012.4mb 42f 44f
8:50pm  -   -  4s 2 4 mph 1011.8mb 42f 45f
7:50pm  -   -  4s 4 4 mph 1012mb 42f 45f
6:50pm  -   -  4s 4 7 mph 1011.5mb 43f 45f
5:50pm  -   -  4s 4 7 mph 1011.6mb 43f 46f
4:50pm  -   -  4s 7 7 mph 1011.7mb 43f 46f
3:50pm  -   -  4s 7 7 mph 1011.8mb 43f 43f
2:50pm  -   -  4s 7 7 mph 1012.1mb 42f 43f
1:50pm  -   -  4s 7 7 mph 1012.2mb 42f 42f
11:50am  -   -  4s 9 9 mph 1012mb 43f 45f
10:50am  -   -  4s 4 4 mph 1012mb 44f 46f
9:50am  -   -  3s 4 4 mph 1011.6mb 43f 46f
8:50am  -   -  3s 4 4 mph 1011.6mb 41f 44f
7:50am  -   -  4s 4 4 mph 1011.7mb 41f 44f
6:50am  -   -  3s 7 7 mph 1011.6mb 41f 44f
5:50am 0.3ft  -  3s 7 9 mph 1011.2mb 41f 43f
4:50am 0.3ft  -  3s 7 9 mph 1010.9mb 41f 43f
3:50am  -   -   -  7 7 mph 1010.2mb 41f 43f
2:50am 0.3ft  -  3s 9 9 mph 1009.5mb 41f 43f
1:50am 0.3ft  -  3s 4 7 mph 1009.3mb 41f 42f
12:50am 0.3ft  -  3s 4 7 mph 1008.9mb 41f 43f
Thu 05/25 11:50pm 0.3ft  -  3s 11 13 mph 1008.9mb 41f 46f
10:50pm 0.3ft  -  3s 9 11 mph 1008.7mb 41f 44f
9:50pm 0.3ft  -  3s 7 9 mph 1008.1mb 41f 45f
8:50pm 0.3ft  -  3s 7 7 mph 1007.4mb 41f 45f
7:50pm 0.3ft  -  3s 7 7 mph 1007mb 41f 46f
6:50pm 0.3ft  -  3s 7 9 mph 1006.3mb 41f 45f
5:50pm 0.3ft  -  3s 11 11 mph 1005.8mb 41f 46f
4:50pm 0.3ft  -  3s 9 11 mph 1005.5mb 41f 47f
3:50pm 0.3ft  -  3s 7 7 mph 1005.1mb 41f 47f
2:50pm 0.7ft  -  3s 7 7 mph 1005.4mb 41f 47f
1:50pm 1ft 3s 3s 9 9 mph 1005.7mb 40f 45f
12:50pm 1ft 3s 3s 9 11 mph 1005.8mb 40f 45f
11:50am 1ft 3s 3s 11 13 mph 1005.9mb 40f 45f
10:50am 1.3ft 3s 3s 11 11 mph 1006mb 40f 44f
9:50am 1ft 3s 3s 13 16 mph 1005.8mb 40f 44f
8:50am 1ft 3s 3s 13 16 mph 1005.8mb 40f 44f
7:50am 1ft 3s 3s 11 13 mph 1005.6mb 40f 43f
6:50am 1.3ft 3s 3s 13 16 mph 1005.3mb 40f 44f
5:50am 1.3ft 3s 3s 13 16 mph 1005.2mb 40f 44f
4:50am 1.3ft 3s 3s 13 16 mph 1005.1mb 40f 44f